METAR Data
IDs: Format: Raw Decoded Include TAF

Data at: 0519 UTC 03 Jul 2022

METAR for:KLRO (Mt Pleasant Rgnl, SC, US)
Text:KLRO 030515Z AUTO VRB05KT 10SM FEW055 26/26 A3002 RMK AO2
Temperature: 26.0°C ( 79°F)
Dewpoint: 26.0°C ( 79°F) [RH = 100%]
Pressure (altimeter):30.02 inches Hg (1016.7 mb)
Winds:variable direction winds at 6 MPH (5 knots; 2.6 m/s)
Visibility:10 or more sm (16+ km)
Ceiling:at least 12,000 feet AGL
Clouds: few clouds at 5500 feet AGL
QC Flag:automated observation with no human augmentation

TAF for:KLRO (Mt Pleasant Rgnl, SC, US)
Text:No data found